createdAt,value
2018-05-21T00:00:34.564Z,0.00
2018-05-21T00:01:34.561Z,0.00
2018-05-21T00:02:34.556Z,0.00
2018-05-21T00:03:34.546Z,0.00
2018-05-21T00:04:34.538Z,0.00
2018-05-21T00:05:34.532Z,0.00
2018-05-21T00:06:34.532Z,0.00
2018-05-21T00:07:34.523Z,0.00
2018-05-21T00:08:34.516Z,0.00
2018-05-21T00:09:34.511Z,0.00
2018-05-21T00:10:34.504Z,0.00
2018-05-21T00:11:34.500Z,0.00
2018-05-21T00:12:34.494Z,0.00
2018-05-21T00:13:34.489Z,0.00
2018-05-21T00:14:34.483Z,0.00
2018-05-21T00:15:34.477Z,0.00
2018-05-21T00:16:34.472Z,0.00
2018-05-21T00:17:34.466Z,0.00
2018-05-21T00:18:34.460Z,0.00
2018-05-21T00:19:34.454Z,0.00
2018-05-21T00:20:34.448Z,0.00
2018-05-21T00:21:34.445Z,0.00
2018-05-21T00:22:34.437Z,0.00
2018-05-21T00:23:34.433Z,0.00
2018-05-21T00:24:34.424Z,0.00
2018-05-21T00:25:34.419Z,0.00
2018-05-21T00:26:34.414Z,0.00
2018-05-21T00:27:34.408Z,0.00
2018-05-21T00:28:34.401Z,0.00
2018-05-21T00:29:34.401Z,0.00
2018-05-21T00:30:34.390Z,0.00
2018-05-21T00:31:34.386Z,0.00
2018-05-21T00:32:34.381Z,0.00
2018-05-21T00:33:34.374Z,0.00
2018-05-21T00:34:34.368Z,0.00
2018-05-21T00:35:34.366Z,0.00
2018-05-21T00:36:34.356Z,0.00
2018-05-21T00:37:34.351Z,0.00
2018-05-21T00:38:34.363Z,0.00
2018-05-21T00:39:34.339Z,0.00
2018-05-21T00:40:34.332Z,0.00
2018-05-21T00:41:34.354Z,0.00
2018-05-21T00:42:34.323Z,0.00
2018-05-21T00:43:34.315Z,0.00
2018-05-21T00:44:34.311Z,0.00
2018-05-21T00:45:34.305Z,0.00
2018-05-21T00:46:34.300Z,0.00
2018-05-21T00:47:34.296Z,0.00
2018-05-21T00:48:34.290Z,0.00
2018-05-21T00:49:34.282Z,0.00
2018-05-21T00:50:34.275Z,0.00
2018-05-21T00:51:34.271Z,0.00
2018-05-21T00:52:34.264Z,0.00
2018-05-21T00:53:34.259Z,0.00
2018-05-21T00:54:34.254Z,0.00
2018-05-21T00:55:34.249Z,0.00
2018-05-21T00:56:34.242Z,0.00
2018-05-21T00:57:34.240Z,0.00
2018-05-21T00:58:34.230Z,0.00
2018-05-21T00:59:34.224Z,0.00
2018-05-21T01:00:34.218Z,0.00
2018-05-21T01:01:34.215Z,0.00
2018-05-21T01:02:34.209Z,0.00
2018-05-21T01:03:34.203Z,0.00
2018-05-21T01:04:34.198Z,0.00
2018-05-21T01:05:34.192Z,0.00
2018-05-21T01:06:34.185Z,0.00
2018-05-21T01:07:34.196Z,0.00
2018-05-21T01:08:34.173Z,0.00
2018-05-21T01:09:34.168Z,0.00
2018-05-21T01:10:34.161Z,0.00
2018-05-21T01:11:34.157Z,0.00
2018-05-21T01:12:34.151Z,0.00
2018-05-21T01:13:34.148Z,0.00
2018-05-21T01:14:34.139Z,0.00
2018-05-21T01:15:34.172Z,0.00
2018-05-21T01:16:34.127Z,0.00
2018-05-21T01:17:34.123Z,0.00
2018-05-21T01:18:34.115Z,0.00
2018-05-21T01:19:34.110Z,0.00
2018-05-21T01:20:34.104Z,0.00
2018-05-21T01:21:34.098Z,0.00
2018-05-21T01:22:34.093Z,0.00
2018-05-21T01:23:34.089Z,0.00
2018-05-21T01:24:34.089Z,0.00
2018-05-21T01:25:34.077Z,0.00
2018-05-21T01:26:34.069Z,0.00
2018-05-21T01:27:34.065Z,0.00
2018-05-21T01:28:34.060Z,0.00
2018-05-21T01:29:34.052Z,0.00
2018-05-21T01:30:34.048Z,0.00
2018-05-21T01:31:34.042Z,0.00
2018-05-21T01:32:34.034Z,0.00
2018-05-21T01:33:34.029Z,0.00
2018-05-21T01:34:34.023Z,0.00
2018-05-21T01:35:34.019Z,0.00
2018-05-21T01:36:34.013Z,0.00
2018-05-21T01:37:34.006Z,0.00
2018-05-21T01:38:34.004Z,0.00
2018-05-21T01:39:33.996Z,0.00
2018-05-21T01:40:33.988Z,0.00
2018-05-21T01:41:33.984Z,0.00
2018-05-21T01:42:33.981Z,0.00
2018-05-21T01:43:33.973Z,0.00
2018-05-21T01:44:33.967Z,0.00
2018-05-21T01:45:33.962Z,0.00
2018-05-21T01:46:33.955Z,0.00
2018-05-21T01:47:33.949Z,0.00
2018-05-21T01:48:33.944Z,0.00
2018-05-21T01:49:33.938Z,0.00
2018-05-21T01:50:33.937Z,0.00
2018-05-21T01:51:33.927Z,0.00
2018-05-21T01:52:33.920Z,0.00
2018-05-21T01:53:33.914Z,0.00
2018-05-21T01:54:33.915Z,0.00
2018-05-21T01:55:33.902Z,0.00
2018-05-21T01:56:33.899Z,0.00
2018-05-21T01:57:33.896Z,0.00
2018-05-21T01:58:33.886Z,0.00
2018-05-21T01:59:33.881Z,0.00
2018-05-21T02:00:33.874Z,0.00
2018-05-21T02:01:33.874Z,0.00
2018-05-21T02:02:33.866Z,0.00
2018-05-21T02:03:33.858Z,0.00
2018-05-21T02:04:33.854Z,0.00
2018-05-21T02:05:33.846Z,0.00
2018-05-21T02:06:33.839Z,0.00
2018-05-21T02:07:33.835Z,0.00
2018-05-21T02:08:33.907Z,0.00
2018-05-21T02:09:33.823Z,0.00
2018-05-21T02:10:33.817Z,0.00
2018-05-21T02:11:33.812Z,0.00
2018-05-21T02:12:33.807Z,0.00
2018-05-21T02:13:33.800Z,0.00
2018-05-21T02:14:33.794Z,0.00
2018-05-21T02:15:33.790Z,0.00
2018-05-21T02:16:33.782Z,0.00
2018-05-21T02:17:33.777Z,0.00
2018-05-21T02:18:33.773Z,0.00
2018-05-21T02:19:33.766Z,0.00
2018-05-21T02:20:33.759Z,0.00
2018-05-21T02:21:33.754Z,0.00
2018-05-21T02:22:33.748Z,0.00
2018-05-21T02:23:33.746Z,0.00
2018-05-21T02:24:33.739Z,0.00
2018-05-21T02:25:33.731Z,0.00
2018-05-21T02:26:33.728Z,0.00
2018-05-21T02:27:33.720Z,0.00
2018-05-21T02:28:33.717Z,0.00
2018-05-21T02:29:33.708Z,0.00
2018-05-21T02:30:33.702Z,0.00
2018-05-21T02:31:33.697Z,0.00
2018-05-21T02:32:33.690Z,0.00
2018-05-21T02:33:33.684Z,0.00
2018-05-21T02:34:33.683Z,0.00
2018-05-21T02:35:33.674Z,0.00
2018-05-21T02:36:33.670Z,0.00
2018-05-21T02:37:33.661Z,0.00
2018-05-21T02:38:33.657Z,0.00
2018-05-21T02:39:33.654Z,0.00
2018-05-21T02:40:33.643Z,0.00
2018-05-21T02:41:33.638Z,0.00
2018-05-21T02:42:33.633Z,0.00
2018-05-21T02:43:33.629Z,0.00
2018-05-21T02:44:33.621Z,0.00
2018-05-21T02:45:33.615Z,0.00
2018-05-21T02:46:33.608Z,0.00
2018-05-21T02:47:33.605Z,0.00
2018-05-21T02:48:33.598Z,0.00
2018-05-21T02:49:33.598Z,0.00
2018-05-21T02:50:33.598Z,0.00
2018-05-21T02:51:33.586Z,0.00
2018-05-21T02:52:33.574Z,0.00
2018-05-21T02:53:33.569Z,0.00
2018-05-21T02:54:33.562Z,0.00
2018-05-21T02:55:33.557Z,0.00
2018-05-21T02:56:33.551Z,0.00
2018-05-21T02:57:33.547Z,0.00
2018-05-21T02:58:33.541Z,0.00
2018-05-21T02:59:33.535Z,0.00
2018-05-21T03:00:33.527Z,0.00
2018-05-21T03:01:33.521Z,0.00
2018-05-21T03:02:33.517Z,0.00
2018-05-21T03:03:33.512Z,0.00
2018-05-21T03:04:33.505Z,0.00
2018-05-21T03:05:33.504Z,0.00
2018-05-21T03:06:33.494Z,0.00
2018-05-21T03:07:33.488Z,0.00
2018-05-21T03:08:33.483Z,0.00
2018-05-21T03:09:33.478Z,0.00
2018-05-21T03:10:33.471Z,0.00
2018-05-21T03:11:33.467Z,0.00
2018-05-21T03:12:33.457Z,0.00
2018-05-21T03:13:33.457Z,0.00
2018-05-21T03:14:33.448Z,0.00
2018-05-21T03:15:33.443Z,0.00
2018-05-21T03:16:33.429Z,0.00
2018-05-21T03:17:33.430Z,0.00
2018-05-21T03:18:33.426Z,0.00
2018-05-21T03:19:33.422Z,0.00
2018-05-21T03:20:33.412Z,0.00
2018-05-21T03:21:33.408Z,0.00
2018-05-21T03:22:33.402Z,0.00
2018-05-21T03:23:33.396Z,0.00
2018-05-21T03:24:33.392Z,0.00
2018-05-21T03:25:33.384Z,0.00
2018-05-21T03:26:33.379Z,0.00
2018-05-21T03:27:33.371Z,0.00
2018-05-21T03:28:33.367Z,0.00
2018-05-21T03:29:33.362Z,0.00
2018-05-21T03:30:33.356Z,0.00
2018-05-21T03:31:33.350Z,0.00
2018-05-21T03:32:33.373Z,0.00
2018-05-21T03:33:33.337Z,0.00
2018-05-21T03:34:33.331Z,0.00
2018-05-21T03:35:33.327Z,0.00
2018-05-21T03:36:33.321Z,0.00
2018-05-21T03:37:33.313Z,0.00
2018-05-21T03:38:33.308Z,0.00
2018-05-21T03:39:33.303Z,0.00
2018-05-21T03:40:33.297Z,0.00
2018-05-21T03:41:33.295Z,0.00
2018-05-21T03:42:33.285Z,0.00
2018-05-21T03:43:33.281Z,0.00
2018-05-21T03:44:33.274Z,0.00
2018-05-21T03:45:33.269Z,0.00
2018-05-21T03:46:33.264Z,0.00
2018-05-21T03:47:33.258Z,0.00
2018-05-21T03:48:33.250Z,0.00
2018-05-21T03:49:33.246Z,0.00
2018-05-21T03:50:33.243Z,0.00
2018-05-21T03:51:33.233Z,0.00
2018-05-21T03:52:33.230Z,0.00
2018-05-21T03:53:33.222Z,0.00
2018-05-21T03:54:33.216Z,0.00
2018-05-21T03:55:33.217Z,0.00
2018-05-21T03:56:33.208Z,0.00
2018-05-21T03:57:33.199Z,0.00
2018-05-21T03:58:33.193Z,0.00
2018-05-21T03:59:33.188Z,0.00
2018-05-21T04:00:33.183Z,0.00
2018-05-21T04:01:33.176Z,0.00
2018-05-21T04:02:33.171Z,0.00
2018-05-21T04:03:33.165Z,0.00
2018-05-21T04:04:33.223Z,0.00
2018-05-21T04:05:33.153Z,0.00
2018-05-21T04:06:33.147Z,0.00
2018-05-21T04:07:33.142Z,0.00
2018-05-21T04:08:33.146Z,0.00
2018-05-21T04:09:33.133Z,0.00
2018-05-21T04:10:33.124Z,0.00
2018-05-21T04:11:33.120Z,0.00
2018-05-21T04:12:33.112Z,0.00
2018-05-21T04:13:33.106Z,0.00
2018-05-21T04:14:33.101Z,0.00
2018-05-21T04:15:33.096Z,0.00
2018-05-21T04:16:33.090Z,0.00
2018-05-21T04:17:33.084Z,0.00
2018-05-21T04:18:33.078Z,0.00
2018-05-21T04:19:33.073Z,0.00
2018-05-21T04:20:33.076Z,0.00
2018-05-21T04:21:33.060Z,0.00
2018-05-21T04:22:33.055Z,0.00
2018-05-21T04:23:33.050Z,0.00
2018-05-21T04:24:33.043Z,0.00
2018-05-21T04:25:33.044Z,0.00
2018-05-21T04:26:33.032Z,0.00
2018-05-21T04:27:33.025Z,0.00
2018-05-21T04:28:33.023Z,0.00
2018-05-21T04:29:33.016Z,0.00
2018-05-21T04:30:33.009Z,0.00
2018-05-21T04:31:33.004Z,0.00
2018-05-21T04:32:33.078Z,0.00
2018-05-21T04:33:32.994Z,0.00
2018-05-21T04:34:32.985Z,0.00
2018-05-21T04:35:32.980Z,0.00
2018-05-21T04:36:32.980Z,0.00
2018-05-21T04:37:32.969Z,0.00
2018-05-21T04:38:32.963Z,0.00
2018-05-21T04:39:32.957Z,0.00
2018-05-21T04:40:32.953Z,0.00
2018-05-21T04:41:32.945Z,0.00
2018-05-21T04:42:32.940Z,0.00
2018-05-21T04:43:32.935Z,0.00
2018-05-21T04:44:32.927Z,0.00
2018-05-21T04:45:32.924Z,0.00
2018-05-21T04:46:32.918Z,0.00
2018-05-21T04:47:32.911Z,0.00
2018-05-21T04:48:32.904Z,0.00
2018-05-21T04:49:32.899Z,0.00
2018-05-21T04:50:32.893Z,0.00
2018-05-21T04:51:32.887Z,0.00
2018-05-21T04:52:32.882Z,0.00
2018-05-21T04:53:32.877Z,0.00
2018-05-21T04:54:32.872Z,0.00
2018-05-21T04:55:32.866Z,0.00
2018-05-21T04:56:32.860Z,0.00
2018-05-21T04:57:32.853Z,0.00
2018-05-21T04:58:32.849Z,0.00
2018-05-21T04:59:32.843Z,0.00
2018-05-21T05:00:32.836Z,0.00
2018-05-21T05:01:32.831Z,0.00
2018-05-21T05:02:32.826Z,0.00
2018-05-21T05:03:32.820Z,0.00
2018-05-21T05:04:32.838Z,0.00
2018-05-21T05:05:32.808Z,0.00
2018-05-21T05:06:32.805Z,0.00
2018-05-21T05:07:32.801Z,0.00
2018-05-21T05:08:32.790Z,0.00
2018-05-21T05:09:32.784Z,0.00
2018-05-21T05:10:32.779Z,0.00
2018-05-21T05:11:32.774Z,0.00
2018-05-21T05:12:32.767Z,0.00
2018-05-21T05:13:32.762Z,0.00
2018-05-21T05:14:32.755Z,0.00
2018-05-21T05:15:32.747Z,0.00
2018-05-21T05:16:32.744Z,0.00
2018-05-21T05:17:32.738Z,0.00
2018-05-21T05:18:32.733Z,0.00
2018-05-21T05:19:32.728Z,0.00
2018-05-21T05:20:32.725Z,0.00
2018-05-21T05:21:32.752Z,0.00
2018-05-21T05:22:32.711Z,0.00
2018-05-21T05:23:32.705Z,0.00
2018-05-21T05:24:32.700Z,0.00
2018-05-21T05:25:32.690Z,0.00
2018-05-21T05:26:32.715Z,0.00
2018-05-21T05:27:32.682Z,0.00
2018-05-21T05:28:32.679Z,0.00
2018-05-21T05:29:32.671Z,0.00
2018-05-21T05:30:32.664Z,0.00
2018-05-21T05:31:32.660Z,0.00
2018-05-21T05:32:32.653Z,0.00
2018-05-21T05:33:32.652Z,0.00
2018-05-21T05:34:32.642Z,0.00
2018-05-21T05:35:32.636Z,0.00
2018-05-21T05:36:32.630Z,0.00
2018-05-21T05:37:32.634Z,0.00
2018-05-21T05:38:32.619Z,0.00
2018-05-21T05:39:32.615Z,0.00
2018-05-21T05:40:32.616Z,0.00
2018-05-21T05:41:32.601Z,0.00
2018-05-21T05:42:32.598Z,0.00
2018-05-21T05:43:32.592Z,0.00
2018-05-21T05:44:32.590Z,0.00
2018-05-21T05:45:32.579Z,0.00
2018-05-21T05:46:32.572Z,0.00
2018-05-21T05:47:32.567Z,0.00
2018-05-21T05:48:32.563Z,0.00
2018-05-21T05:49:32.556Z,0.00
2018-05-21T05:50:32.552Z,0.00
2018-05-21T05:51:32.546Z,0.00
2018-05-21T05:52:32.541Z,0.00
2018-05-21T05:53:32.533Z,0.00
2018-05-21T05:54:32.528Z,0.00
2018-05-21T05:55:32.519Z,0.00
2018-05-21T05:56:32.516Z,0.00
2018-05-21T05:57:32.510Z,0.00
2018-05-21T05:58:32.506Z,0.00
2018-05-21T05:59:32.499Z,0.00
2018-05-21T06:00:32.493Z,0.00
2018-05-21T06:01:32.488Z,0.00
2018-05-21T06:02:32.482Z,0.00
2018-05-21T06:03:32.512Z,0.00
2018-05-21T06:04:32.470Z,0.00
2018-05-21T06:05:32.464Z,0.00
2018-05-21T06:06:32.460Z,0.00
2018-05-21T06:07:32.454Z,0.00
2018-05-21T06:08:32.447Z,0.00
2018-05-21T06:09:32.441Z,0.00
2018-05-21T06:10:32.441Z,0.00
2018-05-21T06:11:32.433Z,0.00
2018-05-21T06:12:32.427Z,0.00
2018-05-21T06:13:32.419Z,0.00
2018-05-21T06:14:32.415Z,0.00
2018-05-21T06:15:32.408Z,0.00
2018-05-21T06:16:32.403Z,0.00
2018-05-21T06:17:32.398Z,0.00
2018-05-21T06:18:32.392Z,0.00
2018-05-21T06:19:32.387Z,0.00
2018-05-21T06:20:32.380Z,0.00
2018-05-21T06:21:32.375Z,0.00
2018-05-21T06:22:32.368Z,0.00
2018-05-21T06:23:32.365Z,0.00
2018-05-21T06:24:32.357Z,0.00
2018-05-21T06:25:32.355Z,0.00
2018-05-21T06:26:32.346Z,0.00
2018-05-21T06:27:32.340Z,0.00
2018-05-21T06:28:32.333Z,0.00
2018-05-21T06:29:32.329Z,0.00
2018-05-21T06:30:32.334Z,0.00
2018-05-21T06:31:32.318Z,0.00
2018-05-21T06:32:32.313Z,0.00
2018-05-21T06:33:32.308Z,0.00
2018-05-21T06:34:32.362Z,0.00
2018-05-21T06:35:32.295Z,0.00
2018-05-21T06:36:32.292Z,0.00
2018-05-21T06:37:32.284Z,0.00
2018-05-21T06:38:32.278Z,0.00
2018-05-21T06:39:32.275Z,0.00
2018-05-21T06:40:32.267Z,0.00
2018-05-21T06:41:32.263Z,0.00
2018-05-21T06:42:32.264Z,0.00
2018-05-21T06:43:32.251Z,0.00
2018-05-21T06:44:32.246Z,0.00
2018-05-21T06:45:32.239Z,0.00
2018-05-21T06:46:32.274Z,0.00
2018-05-21T06:47:32.229Z,0.00
2018-05-21T06:48:32.228Z,0.00
2018-05-21T06:49:32.218Z,0.00
2018-05-21T06:50:32.217Z,0.00
2018-05-21T06:51:32.207Z,0.00
2018-05-21T06:52:32.199Z,0.00
2018-05-21T06:53:32.196Z,0.00
2018-05-21T06:54:32.191Z,0.00
2018-05-21T06:55:32.187Z,0.00
2018-05-21T06:56:32.181Z,0.00
2018-05-21T06:57:32.175Z,0.00
2018-05-21T06:58:32.167Z,0.00
2018-05-21T06:59:32.163Z,0.00
2018-05-21T07:00:32.159Z,0.00
2018-05-21T07:01:32.150Z,0.00
2018-05-21T07:02:32.149Z,0.00
2018-05-21T07:03:32.141Z,0.00
2018-05-21T07:04:32.134Z,0.00
2018-05-21T07:05:32.129Z,0.00
2018-05-21T07:06:32.125Z,0.00
2018-05-21T07:07:32.119Z,0.00
2018-05-21T07:08:32.114Z,0.00
2018-05-21T07:09:32.110Z,0.00
2018-05-21T07:10:32.100Z,0.00
2018-05-21T07:11:32.099Z,0.00
2018-05-21T07:12:32.090Z,0.00
2018-05-21T07:13:32.085Z,0.00
2018-05-21T07:14:32.079Z,0.00
2018-05-21T07:15:32.075Z,0.00
2018-05-21T07:16:32.068Z,0.00
2018-05-21T07:17:32.063Z,0.00
2018-05-21T07:18:32.057Z,0.00
2018-05-21T07:19:32.053Z,0.00
2018-05-21T07:20:32.055Z,0.00
2018-05-21T07:21:32.040Z,0.00
2018-05-21T07:22:32.034Z,0.00
2018-05-21T07:23:32.033Z,0.00
2018-05-21T07:24:32.042Z,0.00
2018-05-21T07:25:32.021Z,0.00
2018-05-21T07:26:32.014Z,0.00
2018-05-21T07:27:32.008Z,0.00
2018-05-21T07:28:32.003Z,0.00
2018-05-21T07:29:31.997Z,0.00
2018-05-21T07:30:31.991Z,0.00
2018-05-21T07:31:32.068Z,0.00
2018-05-21T07:32:31.981Z,0.00
2018-05-21T07:33:31.978Z,0.00
2018-05-21T07:34:31.972Z,0.00
2018-05-21T07:35:31.966Z,0.00
2018-05-21T07:36:31.959Z,0.00
2018-05-21T07:37:31.954Z,0.00
2018-05-21T07:38:31.949Z,0.00
2018-05-21T07:39:31.944Z,0.00
2018-05-21T07:40:31.938Z,0.00
2018-05-21T07:41:31.955Z,0.00
2018-05-21T07:42:31.932Z,0.00
2018-05-21T07:43:31.940Z,0.00
2018-05-21T07:44:31.917Z,0.00
2018-05-21T07:45:31.912Z,0.00
2018-05-21T07:46:31.908Z,0.00
2018-05-21T07:47:31.901Z,0.00
2018-05-21T07:48:31.895Z,0.00
2018-05-21T07:49:31.892Z,0.00
2018-05-21T07:50:31.884Z,0.00
2018-05-21T07:51:31.966Z,0.00
2018-05-21T07:52:31.873Z,0.00
2018-05-21T07:53:31.868Z,0.00
2018-05-21T07:54:31.864Z,0.00
2018-05-21T07:55:31.858Z,0.00
2018-05-21T07:56:31.854Z,0.00
2018-05-21T07:57:31.850Z,0.00
2018-05-21T07:58:31.843Z,0.00
2018-05-21T07:59:31.841Z,0.00
2018-05-21T08:00:31.834Z,61.88
2018-05-21T08:01:31.827Z,50.63
2018-05-21T08:02:31.823Z,56.25
2018-05-21T08:03:31.816Z,33.75
2018-05-21T08:04:31.814Z,45.00
2018-05-21T08:05:31.804Z,56.25
2018-05-21T08:06:31.801Z,67.50
2018-05-21T08:07:31.792Z,67.50
2018-05-21T08:08:31.803Z,67.50
2018-05-21T08:09:31.782Z,67.50
2018-05-21T08:10:31.777Z,67.50
2018-05-21T08:11:31.770Z,67.50
2018-05-21T08:12:31.763Z,67.50
2018-05-21T08:13:31.757Z,67.50
2018-05-21T08:14:31.843Z,67.50
2018-05-21T08:15:31.749Z,73.13
2018-05-21T08:16:31.739Z,73.13
2018-05-21T08:17:31.741Z,73.13
2018-05-21T08:18:31.733Z,73.13
2018-05-21T08:19:31.725Z,73.13
2018-05-21T08:20:31.719Z,78.75
2018-05-21T08:21:31.711Z,78.75
2018-05-21T08:22:31.709Z,78.75
2018-05-21T08:23:31.705Z,73.13
2018-05-21T08:24:31.694Z,78.75
2018-05-21T08:25:31.689Z,78.75
2018-05-21T08:26:31.683Z,73.13
2018-05-21T08:27:31.677Z,73.13
2018-05-21T08:28:31.669Z,73.13
2018-05-21T08:29:31.668Z,73.13
2018-05-21T08:30:31.659Z,73.13
2018-05-21T08:31:31.651Z,78.75
2018-05-21T08:32:31.647Z,78.75
2018-05-21T08:33:31.639Z,78.75
2018-05-21T08:34:31.633Z,78.75
2018-05-21T08:35:31.630Z,78.75
2018-05-21T08:36:31.621Z,78.75
2018-05-21T08:37:31.619Z,78.75
2018-05-21T08:38:31.612Z,78.75
2018-05-21T08:39:31.681Z,78.75
2018-05-21T08:40:31.599Z,78.75
2018-05-21T08:41:31.592Z,78.75
2018-05-21T08:42:31.590Z,78.75
2018-05-21T08:43:31.582Z,78.75
2018-05-21T08:44:31.579Z,78.75
2018-05-21T08:45:31.571Z,78.75
2018-05-21T08:46:31.561Z,78.75
2018-05-21T08:47:31.561Z,78.75
2018-05-21T08:48:31.644Z,84.38
2018-05-21T08:49:32.173Z,84.38
2018-05-21T08:50:31.537Z,84.38
2018-05-21T08:51:31.532Z,84.38
2018-05-21T08:52:31.528Z,84.38
2018-05-21T08:53:31.524Z,84.38
2018-05-21T08:54:31.519Z,84.38
2018-05-21T08:55:31.509Z,84.38
2018-05-21T08:56:31.511Z,84.38
2018-05-21T08:57:31.498Z,84.38
2018-05-21T08:58:31.492Z,90.00
2018-05-21T08:59:31.487Z,90.00
2018-05-21T09:00:31.505Z,90.00
2018-05-21T09:01:31.471Z,90.00
2018-05-21T09:02:31.469Z,90.00
2018-05-21T09:03:31.467Z,90.00
2018-05-21T09:04:31.455Z,90.00
2018-05-21T09:05:31.454Z,90.00
2018-05-21T09:06:31.445Z,90.00
2018-05-21T09:07:31.439Z,90.00
2018-05-21T09:08:31.436Z,90.00
2018-05-21T09:09:31.425Z,90.00
2018-05-21T09:10:31.424Z,90.00
2018-05-21T09:11:31.417Z,90.00
2018-05-21T09:12:31.474Z,90.00
2018-05-21T09:13:31.406Z,95.63
2018-05-21T09:14:31.402Z,95.63
2018-05-21T09:15:31.393Z,95.63
2018-05-21T09:16:31.445Z,95.63
2018-05-21T09:17:31.384Z,95.63
2018-05-21T09:18:31.379Z,95.63
2018-05-21T09:19:31.372Z,95.63
2018-05-21T09:20:31.367Z,95.63
2018-05-21T09:21:31.359Z,95.63
2018-05-21T09:22:31.375Z,95.63
2018-05-21T09:23:31.348Z,95.63
2018-05-21T09:24:31.341Z,95.63
2018-05-21T09:25:31.335Z,95.63
2018-05-21T09:26:31.354Z,95.63
2018-05-21T09:27:31.330Z,95.63
2018-05-21T09:28:31.314Z,90.00
2018-05-21T09:29:31.316Z,95.63
2018-05-21T09:30:31.308Z,90.00
2018-05-21T09:31:31.307Z,90.00
2018-05-21T09:32:31.343Z,90.00
2018-05-21T09:33:31.311Z,90.00
2018-05-21T09:34:31.294Z,95.63
2018-05-21T09:35:31.284Z,95.63
2018-05-21T09:36:31.276Z,95.63
2018-05-21T09:37:31.268Z,95.63
2018-05-21T09:38:31.280Z,95.63
2018-05-21T09:39:31.259Z,95.63
2018-05-21T09:40:31.253Z,95.63
2018-05-21T09:41:31.250Z,95.63
2018-05-21T09:42:31.243Z,95.63
2018-05-21T09:43:31.243Z,95.63
2018-05-21T09:44:31.224Z,95.63
2018-05-21T09:45:31.238Z,95.63
2018-05-21T09:46:31.217Z,95.63
2018-05-21T09:47:31.219Z,95.63
2018-05-21T09:48:31.212Z,95.63
2018-05-21T09:49:31.205Z,95.63
2018-05-21T09:50:31.286Z,95.63
2018-05-21T09:51:31.195Z,95.63
2018-05-21T09:52:31.186Z,95.63
2018-05-21T09:53:31.183Z,95.63
2018-05-21T09:54:31.183Z,95.63
2018-05-21T09:55:31.171Z,101.25
2018-05-21T09:56:31.167Z,101.25
2018-05-21T09:57:31.159Z,101.25
2018-05-21T09:58:31.155Z,101.25
2018-05-21T09:59:31.153Z,101.25
2018-05-21T10:00:31.144Z,101.25
2018-05-21T10:01:31.140Z,101.25
2018-05-21T10:02:31.133Z,101.25
2018-05-21T10:03:31.128Z,101.25
2018-05-21T10:04:31.122Z,101.25
2018-05-21T10:05:31.116Z,101.25
2018-05-21T10:06:31.115Z,101.25
2018-05-21T10:07:31.105Z,95.63
2018-05-21T10:08:31.103Z,95.63
2018-05-21T10:09:31.096Z,101.25
2018-05-21T10:10:31.094Z,95.63
2018-05-21T10:11:31.085Z,95.63
2018-05-21T10:12:31.085Z,95.63
2018-05-21T10:13:31.082Z,95.63
2018-05-21T10:14:31.067Z,95.63
2018-05-21T10:15:31.065Z,95.63
2018-05-21T10:16:31.060Z,84.38
2018-05-21T10:17:31.056Z,90.00
2018-05-21T10:18:31.050Z,90.00
2018-05-21T10:19:31.051Z,90.00
2018-05-21T10:20:31.044Z,95.63
2018-05-21T10:21:31.032Z,95.63
2018-05-21T10:22:31.037Z,67.50
2018-05-21T10:23:31.026Z,95.63
2018-05-21T10:24:31.019Z,101.25
2018-05-21T10:25:31.014Z,101.25
2018-05-21T10:26:31.005Z,95.63
2018-05-21T10:27:31.060Z,95.63
2018-05-21T10:28:30.989Z,95.63
2018-05-21T10:29:30.992Z,73.13
2018-05-21T10:30:30.990Z,67.50
2018-05-21T10:31:30.980Z,67.50
2018-05-21T10:32:30.977Z,78.75
2018-05-21T10:33:30.971Z,78.75
2018-05-21T10:34:30.966Z,84.38
2018-05-21T10:35:30.961Z,84.38
2018-05-21T10:36:30.959Z,90.00
2018-05-21T10:37:30.952Z,90.00
2018-05-21T10:38:30.946Z,84.38
2018-05-21T10:39:30.944Z,73.13
2018-05-21T10:40:30.936Z,67.50
2018-05-21T10:41:30.933Z,67.50
2018-05-21T10:42:30.926Z,67.50
2018-05-21T10:43:31.078Z,73.13
2018-05-21T10:44:30.917Z,67.50
2018-05-21T10:45:30.917Z,67.50
2018-05-21T10:46:30.906Z,61.88
2018-05-21T10:47:30.916Z,61.88
2018-05-21T10:48:30.896Z,61.88
2018-05-21T10:49:30.887Z,67.50
2018-05-21T10:50:30.886Z,61.88
2018-05-21T10:51:30.945Z,61.88
2018-05-21T10:52:30.880Z,61.88
2018-05-21T10:53:31.737Z,67.50
2018-05-21T10:54:30.865Z,67.50
2018-05-21T10:55:30.859Z,67.50
2018-05-21T10:56:30.856Z,61.88
2018-05-21T10:57:30.853Z,56.25
2018-05-21T10:58:30.846Z,67.50
2018-05-21T10:59:30.840Z,73.13
2018-05-21T11:00:30.833Z,61.88
2018-05-21T11:01:30.829Z,67.50
2018-05-21T11:02:30.824Z,73.13
2018-05-21T11:03:30.814Z,73.13
2018-05-21T11:04:30.836Z,67.50
2018-05-21T11:05:30.812Z,61.88
2018-05-21T11:06:30.802Z,56.25
2018-05-21T11:07:30.799Z,61.88
2018-05-21T11:08:30.792Z,95.63
2018-05-21T11:09:30.791Z,151.88
2018-05-21T11:10:30.785Z,73.13
2018-05-21T11:11:30.780Z,135.00
2018-05-21T11:12:30.771Z,118.13
2018-05-21T11:13:30.766Z,78.75
2018-05-21T11:14:30.766Z,112.50
2018-05-21T11:15:30.757Z,101.25
2018-05-21T11:16:30.751Z,61.88
2018-05-21T11:17:30.751Z,67.50
2018-05-21T11:18:30.740Z,67.50
2018-05-21T11:19:30.734Z,61.88
2018-05-21T11:20:30.729Z,61.88
2018-05-21T11:21:30.760Z,56.25
2018-05-21T11:22:30.720Z,56.25
2018-05-21T11:23:30.715Z,56.25
2018-05-21T11:24:30.760Z,56.25
2018-05-21T11:25:30.702Z,56.25
2018-05-21T11:26:30.701Z,56.25
2018-05-21T11:27:30.694Z,56.25
2018-05-21T11:28:30.687Z,56.25
2018-05-21T11:29:30.681Z,56.25
2018-05-21T11:30:30.679Z,56.25
2018-05-21T11:31:30.675Z,56.25
2018-05-21T11:32:30.666Z,56.25
2018-05-21T11:33:30.661Z,56.25
2018-05-21T11:34:30.656Z,56.25
2018-05-21T11:35:30.651Z,56.25
2018-05-21T11:36:30.644Z,61.88
2018-05-21T11:37:30.641Z,56.25
2018-05-21T11:38:30.635Z,56.25
2018-05-21T11:39:30.662Z,56.25
2018-05-21T11:40:30.622Z,61.88
2018-05-21T11:41:30.618Z,73.13
2018-05-21T11:42:30.613Z,73.13
2018-05-21T11:43:30.609Z,73.13
2018-05-21T11:44:30.602Z,73.13
2018-05-21T11:45:30.624Z,73.13
2018-05-21T11:46:30.594Z,78.75
2018-05-21T11:47:30.586Z,73.13
2018-05-21T11:48:30.578Z,73.13
2018-05-21T11:49:30.574Z,73.13
2018-05-21T11:50:30.572Z,73.13
2018-05-21T11:51:30.566Z,67.50
2018-05-21T11:52:30.563Z,67.50
2018-05-21T11:53:30.555Z,67.50
2018-05-21T11:54:30.551Z,67.50
2018-05-21T11:55:30.544Z,67.50
2018-05-21T11:56:30.541Z,67.50
2018-05-21T11:57:30.532Z,67.50
2018-05-21T11:58:30.547Z,67.50
2018-05-21T11:59:30.518Z,67.50
2018-05-21T12:00:30.516Z,67.50
2018-05-21T12:01:30.513Z,67.50
2018-05-21T12:02:30.506Z,61.88
2018-05-21T12:03:30.509Z,61.88
2018-05-21T12:04:30.495Z,61.88
2018-05-21T12:05:30.489Z,61.88
2018-05-21T12:06:30.485Z,61.88
2018-05-21T12:07:30.481Z,61.88
2018-05-21T12:08:30.473Z,61.88
2018-05-21T12:09:30.468Z,61.88
2018-05-21T12:10:30.464Z,61.88
2018-05-21T12:11:30.460Z,61.88
2018-05-21T12:12:30.455Z,61.88
2018-05-21T12:13:30.451Z,61.88
2018-05-21T12:14:30.443Z,61.88
2018-05-21T12:15:30.437Z,61.88
2018-05-21T12:16:30.428Z,61.88
2018-05-21T12:17:30.429Z,61.88
2018-05-21T12:18:30.420Z,61.88
2018-05-21T12:19:30.416Z,61.88
2018-05-21T12:20:30.409Z,61.88
2018-05-21T12:21:30.404Z,112.50
2018-05-21T12:22:30.409Z,101.25
2018-05-21T12:23:30.394Z,61.88
2018-05-21T12:24:30.389Z,61.88
2018-05-21T12:25:30.383Z,61.88
2018-05-21T12:26:30.383Z,61.88
2018-05-21T12:27:30.374Z,61.88
2018-05-21T12:28:30.368Z,56.25
2018-05-21T12:29:30.363Z,56.25
2018-05-21T12:30:30.357Z,56.25
2018-05-21T12:31:30.387Z,56.25
2018-05-21T12:32:30.346Z,61.88
2018-05-21T12:33:30.341Z,61.88
2018-05-21T12:34:30.337Z,61.88
2018-05-21T12:35:30.342Z,56.25
2018-05-21T12:36:30.326Z,56.25
2018-05-21T12:37:30.322Z,56.25
2018-05-21T12:38:30.316Z,50.63
2018-05-21T12:39:30.322Z,50.63
2018-05-21T12:40:30.309Z,56.25
2018-05-21T12:41:30.299Z,56.25
2018-05-21T12:42:30.294Z,56.25
2018-05-21T12:43:30.294Z,56.25
2018-05-21T12:44:30.283Z,50.63
2018-05-21T12:45:30.278Z,50.63
2018-05-21T12:46:30.273Z,50.63
2018-05-21T12:47:30.268Z,50.63
2018-05-21T12:48:30.261Z,50.63
2018-05-21T12:49:30.263Z,50.63
2018-05-21T12:50:30.253Z,50.63
2018-05-21T12:51:30.246Z,50.63
2018-05-21T12:52:30.240Z,50.63
2018-05-21T12:53:30.236Z,50.63
2018-05-21T12:54:30.231Z,50.63
2018-05-21T12:55:30.224Z,50.63
2018-05-21T12:56:30.221Z,56.25
2018-05-21T12:57:30.216Z,50.63
2018-05-21T12:58:30.210Z,45.00
2018-05-21T12:59:30.205Z,45.00
2018-05-21T13:00:30.198Z,45.00
2018-05-21T13:01:30.193Z,45.00
2018-05-21T13:02:30.188Z,45.00
2018-05-21T13:03:30.182Z,45.00
2018-05-21T13:04:30.177Z,45.00
2018-05-21T13:05:30.171Z,50.63
2018-05-21T13:06:30.168Z,45.00
2018-05-21T13:07:30.164Z,45.00